createdAt,value
2022-11-12T00:02:52.648Z,10.30
2022-11-12T00:05:56.672Z,10.29
2022-11-12T00:09:15.293Z,10.29
2022-11-12T00:12:35.627Z,10.25
2022-11-12T00:15:41.426Z,10.23
2022-11-12T00:18:51.330Z,10.15
2022-11-12T00:21:55.035Z,10.01
2022-11-12T00:24:58.316Z,10.08
2022-11-12T00:28:06.460Z,10.05
2022-11-12T00:31:11.889Z,9.96
2022-11-12T00:34:14.792Z,9.96
2022-11-12T00:37:18.916Z,9.95
2022-11-12T00:40:21.922Z,9.96
2022-11-12T00:43:27.447Z,9.98
2022-11-12T00:46:31.051Z,10.02
2022-11-12T00:49:34.070Z,10.02
2022-11-12T00:52:37.090Z,10.05
2022-11-12T00:55:39.951Z,10.04
2022-11-12T00:58:42.925Z,10.02
2022-11-12T01:01:46.674Z,9.98
2022-11-12T01:04:49.758Z,9.94
2022-11-12T01:07:56.069Z,9.98
2022-11-12T01:11:20.877Z,10.01
2022-11-12T01:14:23.701Z,9.98
2022-11-12T01:17:26.619Z,9.92
2022-11-12T01:20:29.386Z,9.92
2022-11-12T01:23:34.452Z,9.96
2022-11-12T01:26:38.230Z,9.98
2022-11-12T01:29:41.309Z,9.99
2022-11-12T01:32:44.077Z,9.98
2022-11-12T01:35:46.907Z,9.92
2022-11-12T01:38:52.337Z,9.93
2022-11-12T01:41:55.891Z,9.93
2022-11-12T01:44:58.995Z,9.94
2022-11-12T01:48:03.297Z,9.92
2022-11-12T01:51:07.693Z,9.93
2022-11-12T01:54:15.134Z,9.93
2022-11-12T01:57:23.763Z,9.94
2022-11-12T02:00:26.597Z,9.99
2022-11-12T02:03:29.413Z,9.91
2022-11-12T02:06:40.163Z,9.98
2022-11-12T02:09:43.037Z,9.95
2022-11-12T02:13:05.422Z,9.98
2022-11-12T02:16:10.877Z,9.96
2022-11-12T02:19:15.740Z,9.99
2022-11-12T02:22:18.875Z,10.01
2022-11-12T02:25:24.598Z,9.99
2022-11-12T02:28:31.128Z,10.01
2022-11-12T02:31:33.978Z,10.00
2022-11-12T02:34:36.806Z,10.05
2022-11-12T02:37:39.557Z,10.07
2022-11-12T02:40:43.963Z,10.11
2022-11-12T02:43:47.997Z,10.12
2022-11-12T02:46:50.887Z,10.11
2022-11-12T02:49:53.871Z,10.12
2022-11-12T02:52:56.724Z,10.13
2022-11-12T02:56:01.247Z,10.07
2022-11-12T02:59:07.863Z,10.03
2022-11-12T03:02:10.653Z,9.96
2022-11-12T03:05:13.578Z,9.93
2022-11-12T03:08:16.772Z,9.93
2022-11-12T03:11:19.569Z,9.94
2022-11-12T03:14:23.739Z,9.84
2022-11-12T03:17:26.600Z,9.78
2022-11-12T03:20:30.303Z,9.74
2022-11-12T03:23:33.189Z,9.70
2022-11-12T03:26:36.206Z,9.68
2022-11-12T03:29:39.063Z,9.68
2022-11-12T03:32:41.895Z,9.56
2022-11-12T03:35:44.677Z,9.53
2022-11-12T03:38:47.614Z,9.53
2022-11-12T03:41:50.366Z,9.54
2022-11-12T03:44:53.253Z,9.46
2022-11-12T03:48:02.738Z,9.44
2022-11-12T03:51:05.650Z,9.44
2022-11-12T03:54:08.555Z,9.43
2022-11-12T03:57:11.278Z,9.38
2022-11-12T04:00:14.907Z,9.34
2022-11-12T04:03:17.701Z,9.31
2022-11-12T04:06:39.082Z,9.29
2022-11-12T04:09:41.880Z,9.28
2022-11-12T04:13:03.174Z,9.26
2022-11-12T04:16:50.836Z,9.17
2022-11-12T04:20:26.112Z,9.11
2022-11-12T04:23:28.933Z,9.14
2022-11-12T04:26:31.720Z,9.12
2022-11-12T04:29:53.407Z,9.05
2022-11-12T04:32:57.026Z,9.07
2022-11-12T04:35:59.870Z,9.07
2022-11-12T04:39:02.840Z,9.04
2022-11-12T04:42:24.780Z,9.02
2022-11-12T04:45:27.642Z,8.99
2022-11-12T04:48:31.180Z,9.02
2022-11-12T04:51:52.868Z,8.96
2022-11-12T04:55:24.091Z,8.95
2022-11-12T04:58:27.697Z,8.95
2022-11-12T05:01:31.171Z,8.87
2022-11-12T05:04:34.157Z,8.87
2022-11-12T05:07:37.028Z,8.82
2022-11-12T05:10:40.101Z,8.78
2022-11-12T05:13:42.943Z,8.81
2022-11-12T05:16:45.957Z,8.79
2022-11-12T05:19:48.723Z,8.76
2022-11-12T05:23:08.709Z,8.59
2022-11-12T05:26:11.863Z,8.56
2022-11-12T05:29:15.157Z,8.60
2022-11-12T05:32:18.916Z,8.62
2022-11-12T05:35:21.720Z,8.58
2022-11-12T05:38:24.804Z,8.59
2022-11-12T05:41:36.067Z,8.55
2022-11-12T05:44:52.234Z,8.49
2022-11-12T05:47:55.169Z,8.35
2022-11-12T05:51:12.566Z,8.35
2022-11-12T05:54:16.355Z,8.27
2022-11-12T05:57:19.227Z,8.23
2022-11-12T06:00:22.208Z,8.20
2022-11-12T06:03:25.523Z,8.23
2022-11-12T06:06:28.398Z,8.19
2022-11-12T06:09:31.557Z,8.07
2022-11-12T06:12:34.612Z,8.02
2022-11-12T06:15:39.688Z,8.00
2022-11-12T06:18:42.501Z,7.96
2022-11-12T06:21:45.319Z,7.86
2022-11-12T06:24:48.438Z,7.77
2022-11-12T06:27:51.410Z,7.73
2022-11-12T06:30:54.611Z,7.72
2022-11-12T06:33:57.586Z,7.68
2022-11-12T06:37:00.380Z,7.68
2022-11-12T06:40:09.092Z,7.65
2022-11-12T06:43:17.467Z,7.66
2022-11-12T06:46:20.709Z,7.76
2022-11-12T06:49:23.474Z,7.79
2022-11-12T06:52:26.454Z,7.75
2022-11-12T06:55:29.330Z,7.72
2022-11-12T06:58:32.797Z,7.76
2022-11-12T07:01:35.665Z,7.85
2022-11-12T07:04:38.592Z,7.81
2022-11-12T07:07:41.621Z,7.75
2022-11-12T07:10:44.433Z,7.75
2022-11-12T07:13:50.007Z,7.78
2022-11-12T07:17:10.559Z,7.78
2022-11-12T07:20:14.034Z,7.81
2022-11-12T07:23:17.388Z,7.86
2022-11-12T07:26:23.411Z,7.82
2022-11-12T07:29:46.357Z,7.77
2022-11-12T07:32:51.929Z,7.84
2022-11-12T07:36:05.771Z,7.85
2022-11-12T07:39:08.521Z,7.82
2022-11-12T07:42:11.895Z,7.77
2022-11-12T07:45:17.955Z,7.76
2022-11-12T07:48:21.152Z,7.82
2022-11-12T07:51:31.272Z,7.89
2022-11-12T07:54:34.061Z,7.93
2022-11-12T07:57:36.912Z,7.96
2022-11-12T08:00:39.716Z,7.95
2022-11-12T08:03:42.549Z,7.98
2022-11-12T08:06:45.596Z,7.95
2022-11-12T08:09:48.470Z,7.98
2022-11-12T08:12:51.296Z,8.03
2022-11-12T08:15:58.544Z,8.09
2022-11-12T08:19:01.697Z,8.12
2022-11-12T08:22:05.256Z,8.16
2022-11-12T08:25:08.717Z,8.20
2022-11-12T08:28:11.495Z,8.21
2022-11-12T08:31:17.287Z,8.27
2022-11-12T08:34:22.722Z,8.35
2022-11-12T08:37:26.286Z,8.44
2022-11-12T08:40:30.951Z,8.53
2022-11-12T08:43:35.327Z,8.60
2022-11-12T08:46:38.720Z,8.66
2022-11-12T08:50:06.963Z,8.71
2022-11-12T08:53:12.327Z,8.79
2022-11-12T08:56:15.149Z,8.88
2022-11-12T08:59:17.939Z,8.95
2022-11-12T09:02:20.758Z,8.99
2022-11-12T09:05:23.569Z,9.01
2022-11-12T09:08:26.844Z,9.07
2022-11-12T09:11:29.791Z,9.14
2022-11-12T09:14:33.265Z,9.19
2022-11-12T09:17:36.246Z,9.21
2022-11-12T09:20:39.183Z,9.17
2022-11-12T09:23:42.025Z,9.13
2022-11-12T09:26:44.825Z,9.15
2022-11-12T09:29:47.649Z,9.17
2022-11-12T09:32:50.426Z,9.17
2022-11-12T09:35:54.257Z,9.17
2022-11-12T09:38:57.017Z,9.20
2022-11-12T09:42:02.173Z,9.21
2022-11-12T09:45:34.950Z,9.25
2022-11-12T09:48:44.630Z,9.20
2022-11-12T09:52:00.625Z,9.19
2022-11-12T09:55:12.645Z,9.24
2022-11-12T09:58:18.858Z,9.29
2022-11-12T10:01:41.555Z,9.39
2022-11-12T10:05:12.575Z,9.47
2022-11-12T10:08:34.416Z,9.56
2022-11-12T10:12:09.947Z,9.57
2022-11-12T10:16:05.266Z,9.59
2022-11-12T10:19:37.496Z,9.61
2022-11-12T10:23:14.427Z,9.65
2022-11-12T10:26:20.167Z,9.63
2022-11-12T10:29:40.019Z,9.67
2022-11-12T10:32:46.025Z,9.86
2022-11-12T10:35:49.420Z,9.96
2022-11-12T10:38:55.467Z,10.00
2022-11-12T10:42:16.664Z,10.04
2022-11-12T10:45:22.499Z,10.11
2022-11-12T10:48:34.521Z,10.24
2022-11-12T10:51:38.497Z,10.35
2022-11-12T10:54:41.337Z,10.43
2022-11-12T10:57:44.628Z,10.42
2022-11-12T11:01:00.723Z,10.40
2022-11-12T11:04:03.946Z,10.36
2022-11-12T11:07:19.098Z,10.33
2022-11-12T11:10:36.571Z,10.24
2022-11-12T11:13:39.378Z,10.25
2022-11-12T11:16:51.095Z,10.28
2022-11-12T11:19:53.974Z,10.32
2022-11-12T11:23:03.050Z,10.28
2022-11-12T11:26:29.484Z,10.25
2022-11-12T11:29:51.536Z,10.28
2022-11-12T11:33:09.668Z,10.30
2022-11-12T11:36:27.769Z,10.37
2022-11-12T11:40:01.845Z,10.43
2022-11-12T11:43:32.532Z,10.40
2022-11-12T11:47:06.499Z,10.43
2022-11-12T11:50:32.778Z,10.51
2022-11-12T11:53:47.434Z,10.54
2022-11-12T11:56:54.974Z,10.60
2022-11-12T12:00:19.588Z,10.58
2022-11-12T12:03:31.693Z,10.55
2022-11-12T12:07:04.654Z,10.59
2022-11-12T12:11:01.167Z,10.57
2022-11-12T12:14:42.638Z,10.52
2022-11-12T12:18:09.285Z,10.43
2022-11-12T12:21:17.666Z,10.49
2022-11-12T12:24:57.336Z,10.53
2022-11-12T12:28:06.038Z,10.82
2022-11-12T12:31:13.956Z,10.98
2022-11-12T12:34:30.188Z,11.02
2022-11-12T12:37:47.101Z,11.04
2022-11-12T12:41:13.036Z,11.00
2022-11-12T12:44:15.952Z,11.02
2022-11-12T12:47:20.720Z,11.08
2022-11-12T12:50:25.136Z,11.04
2022-11-12T12:53:28.241Z,11.02
2022-11-12T12:56:31.058Z,11.01
2022-11-12T12:59:34.342Z,10.96
2022-11-12T13:02:38.855Z,10.96
2022-11-12T13:05:41.954Z,10.97
2022-11-12T13:08:44.945Z,10.94
2022-11-12T13:12:05.184Z,10.87
2022-11-12T13:15:15.041Z,10.84
2022-11-12T13:18:39.946Z,10.79
2022-11-12T13:21:44.420Z,10.79
2022-11-12T13:25:08.902Z,10.81
2022-11-12T13:28:13.042Z,10.85
2022-11-12T13:31:34.487Z,10.85
2022-11-12T13:34:37.417Z,10.86
2022-11-12T13:37:45.996Z,10.85
2022-11-12T13:40:55.985Z,10.85
2022-11-12T13:43:58.912Z,10.86
2022-11-12T13:47:01.922Z,10.87
2022-11-12T13:50:08.816Z,10.89
2022-11-12T13:53:22.338Z,10.86
2022-11-12T13:56:28.795Z,10.80
2022-11-12T13:59:33.054Z,10.81
2022-11-12T14:02:41.584Z,10.90
2022-11-12T14:05:50.360Z,10.95
2022-11-12T14:09:15.235Z,10.98
2022-11-12T14:12:53.697Z,11.01
2022-11-12T14:16:11.945Z,11.01
2022-11-12T14:19:36.119Z,10.99
2022-11-12T14:22:42.170Z,11.01
2022-11-12T14:25:49.402Z,11.04
2022-11-12T14:28:56.883Z,11.04
2022-11-12T14:32:03.668Z,11.03
2022-11-12T14:35:30.861Z,11.03
2022-11-12T14:38:40.152Z,11.03
2022-11-12T14:41:46.151Z,11.01
2022-11-12T14:44:49.030Z,10.94
2022-11-12T14:48:12.049Z,10.88
2022-11-12T14:51:28.982Z,10.85
2022-11-12T14:54:42.618Z,10.88
2022-11-12T14:57:45.622Z,10.92
2022-11-12T15:00:51.676Z,10.98
2022-11-12T15:04:29.109Z,11.00
2022-11-12T15:07:34.745Z,10.94
2022-11-12T15:10:41.111Z,10.89
2022-11-12T15:13:45.397Z,10.91
2022-11-12T15:16:49.107Z,10.90
2022-11-12T15:19:52.064Z,10.80
2022-11-12T15:22:58.449Z,10.79
2022-11-12T15:26:02.278Z,10.80
2022-11-12T15:29:11.160Z,10.78
2022-11-12T15:32:14.919Z,10.78
2022-11-12T15:35:32.836Z,10.77
2022-11-12T15:38:37.850Z,10.74
2022-11-12T15:41:40.740Z,10.65
2022-11-12T15:44:44.326Z,10.63
2022-11-12T15:48:14.201Z,10.58
2022-11-12T15:51:17.311Z,10.61
2022-11-12T15:54:20.166Z,10.63
2022-11-12T15:57:27.396Z,10.68
2022-11-12T16:00:36.837Z,10.70
2022-11-12T16:03:39.819Z,10.71
2022-11-12T16:06:42.775Z,10.68
2022-11-12T16:09:45.840Z,10.66
2022-11-12T16:12:51.284Z,10.62
2022-11-12T16:15:55.072Z,10.63
2022-11-12T16:18:57.838Z,10.68
2022-11-12T16:22:01.690Z,10.74
2022-11-12T16:25:05.413Z,10.79
2022-11-12T16:28:19.181Z,10.80
2022-11-12T16:31:22.182Z,10.78
2022-11-12T16:34:25.094Z,10.73
2022-11-12T16:37:27.960Z,10.68
2022-11-12T16:40:31.114Z,10.63
2022-11-12T16:43:33.928Z,10.64
2022-11-12T16:46:42.109Z,10.68
2022-11-12T16:49:45.042Z,10.68
2022-11-12T16:52:48.714Z,10.66
2022-11-12T16:55:51.568Z,10.61
2022-11-12T16:58:54.438Z,10.63
2022-11-12T17:01:57.306Z,10.66
2022-11-12T17:05:05.109Z,10.68
2022-11-12T17:08:09.736Z,10.69
2022-11-12T17:11:12.573Z,10.72
2022-11-12T17:14:16.745Z,10.72
2022-11-12T17:17:19.571Z,10.73
2022-11-12T17:20:22.417Z,10.74
2022-11-12T17:23:25.555Z,10.76
2022-11-12T17:26:31.929Z,10.76
2022-11-12T17:29:35.293Z,10.72
2022-11-12T17:32:38.523Z,10.70
2022-11-12T17:35:41.479Z,10.70
2022-11-12T17:38:44.866Z,10.69
2022-11-12T17:41:47.907Z,10.68
2022-11-12T17:44:50.811Z,10.65
2022-11-12T17:47:53.626Z,10.66
2022-11-12T17:51:14.880Z,10.69
2022-11-12T17:54:17.730Z,10.71
2022-11-12T17:57:20.645Z,10.71
2022-11-12T18:00:23.697Z,10.69
2022-11-12T18:03:26.779Z,10.72
2022-11-12T18:06:33.350Z,10.72
2022-11-12T18:09:37.954Z,10.70
2022-11-12T18:12:41.118Z,10.69
2022-11-12T18:15:43.968Z,10.72
2022-11-12T18:18:47.053Z,10.70
2022-11-12T18:21:49.893Z,10.70
2022-11-12T18:24:53.273Z,10.70
2022-11-12T18:27:56.191Z,10.75
2022-11-12T18:31:05.441Z,10.76
2022-11-12T18:34:13.687Z,10.75
2022-11-12T18:37:16.502Z,10.75
2022-11-12T18:40:20.932Z,10.73
2022-11-12T18:43:23.845Z,10.75
2022-11-12T18:46:26.735Z,10.75
2022-11-12T18:49:29.650Z,10.75
2022-11-12T18:52:32.510Z,10.76
2022-11-12T18:55:36.814Z,10.73
2022-11-12T18:58:39.753Z,10.73
2022-11-12T19:01:42.653Z,10.74
2022-11-12T19:04:45.769Z,10.77
2022-11-12T19:07:48.630Z,10.79
2022-11-12T19:11:02.127Z,10.83
2022-11-12T19:14:05.008Z,10.84
2022-11-12T19:17:07.996Z,10.83
2022-11-12T19:20:11.409Z,10.78
2022-11-12T19:23:14.347Z,10.84
2022-11-12T19:26:18.644Z,10.85
2022-11-12T19:29:21.504Z,10.86
2022-11-12T19:32:25.963Z,10.86
2022-11-12T19:35:28.746Z,10.84
2022-11-12T19:38:34.085Z,10.84
2022-11-12T19:41:36.927Z,10.89
2022-11-12T19:44:39.719Z,10.91
2022-11-12T19:47:42.801Z,10.90
2022-11-12T19:50:48.665Z,10.90
2022-11-12T19:53:52.001Z,10.93
2022-11-12T19:56:55.976Z,10.97
2022-11-12T20:00:01.685Z,10.99
2022-11-12T20:03:07.218Z,11.00
2022-11-12T20:06:17.866Z,10.99
2022-11-12T20:09:48.265Z,10.99
2022-11-12T20:12:51.102Z,11.01
2022-11-12T20:15:56.917Z,11.03
2022-11-12T20:19:01.666Z,11.05
2022-11-12T20:22:05.269Z,11.06
2022-11-12T20:25:08.806Z,11.06
2022-11-12T20:28:12.270Z,11.06
2022-11-12T20:31:20.872Z,11.09
2022-11-12T20:34:23.724Z,11.10
2022-11-12T20:37:26.579Z,11.06
2022-11-12T20:40:29.987Z,11.10
2022-11-12T20:43:34.265Z,11.09
2022-11-12T20:47:21.411Z,11.11
2022-11-12T20:51:16.840Z,11.12
2022-11-12T20:54:38.804Z,11.18
2022-11-12T21:03:13.690Z,11.16
2022-11-12T21:07:03.827Z,11.17
2022-11-12T21:20:19.196Z,11.09
2022-11-12T21:23:45.196Z,11.17
2022-11-12T21:26:57.627Z,11.19
2022-11-12T21:30:00.453Z,11.20
2022-11-12T21:33:04.972Z,11.19
2022-11-12T21:36:14.843Z,11.21
2022-11-12T21:39:19.313Z,11.17
2022-11-12T21:42:22.201Z,11.19
2022-11-12T21:45:24.991Z,11.20
2022-11-12T21:48:28.410Z,11.18
2022-11-12T21:51:33.638Z,11.14
2022-11-12T21:54:36.572Z,11.11
2022-11-12T21:57:39.408Z,11.15
2022-11-12T22:00:42.910Z,11.20
2022-11-12T22:03:48.088Z,11.20
2022-11-12T22:06:50.904Z,11.17
2022-11-12T22:10:58.404Z,11.15
2022-11-12T22:14:02.109Z,11.17
2022-11-12T22:17:04.950Z,11.20
2022-11-12T22:20:08.346Z,11.18
2022-11-12T22:23:11.129Z,11.15
2022-11-12T22:26:17.389Z,11.13
2022-11-12T22:29:20.152Z,11.14
2022-11-12T22:32:22.973Z,11.15
2022-11-12T22:35:25.940Z,11.14
2022-11-12T22:38:33.264Z,11.12
2022-11-12T22:41:36.311Z,11.12
2022-11-12T22:44:39.096Z,11.15
2022-11-12T22:47:41.899Z,11.14
2022-11-12T22:50:44.754Z,11.14
2022-11-12T22:53:52.364Z,11.14
2022-11-12T22:56:55.230Z,11.16
2022-11-12T22:59:58.753Z,11.18
2022-11-12T23:03:01.507Z,11.21
2022-11-12T23:06:06.418Z,11.19
2022-11-12T23:09:15.099Z,11.21
2022-11-12T23:12:17.826Z,11.22
2022-11-12T23:15:20.674Z,11.17
2022-11-12T23:18:23.540Z,11.16
2022-11-12T23:21:29.173Z,11.14
2022-11-12T23:24:31.962Z,11.17
2022-11-12T23:27:35.036Z,11.18
2022-11-12T23:30:38.174Z,11.18
2022-11-12T23:33:49.134Z,11.15
2022-11-12T23:36:51.895Z,11.15
2022-11-12T23:39:54.762Z,11.17
2022-11-12T23:42:57.584Z,11.16
2022-11-12T23:46:01.482Z,11.14
2022-11-12T23:49:05.188Z,11.12
2022-11-12T23:52:07.973Z,11.12
2022-11-12T23:55:10.767Z,11.13
2022-11-12T23:58:13.580Z,11.11
